Time,TemperatureF,DewpointF,PressureIn,WindDirection,WindDirectionDegrees,WindSpeedMPH,WindSpeedGustMPH,Humidity,HourlyPrecipIn,Conditions,Clouds,dailyrainin,SoftwareType,DateUTC
2013-06-24 00:07:00,54.0,-99.9,29.85,SW,222,1.0,2.0,-999,-99.99,,,-99.99,,2013-06-24 07:07:00,
2013-06-24 00:49:00,55.0,-99.9,29.84,WSW,246,1.0,2.0,-999,-99.99,,,-99.99,,2013-06-24 07:49:00,
2013-06-24 00:58:00,55.0,-99.9,29.84,SW,214,-999.0,0.0,-999,-99.99,,,-99.99,,2013-06-24 07:58:00,
2013-06-24 01:05:00,55.0,-99.9,29.84,North,-999,-999.0,-999.0,-999,-99.99,,,-99.99,,2013-06-24 08:05:00,
2013-06-24 01:38:00,55.0,-99.9,29.84,SW,225,1.0,2.0,-999,-99.99,,,-99.99,,2013-06-24 08:38:00,
2013-06-24 01:48:00,54.0,-99.9,29.84,West,271,4.0,5.0,-999,-99.99,,,-99.99,,2013-06-24 08:48:00,
2013-06-24 02:08:00,54.0,-99.9,29.84,NNW,344,1.0,2.0,-999,-99.99,,,-99.99,,2013-06-24 09:08:00,
2013-06-24 02:16:00,55.0,-99.9,29.84,West,270,1.0,3.0,-999,-99.99,,,-99.99,,2013-06-24 09:16:00,
2013-06-24 02:38:00,53.0,-99.9,29.83,WNW,283,1.0,3.0,-999,-99.99,,,-99.99,,2013-06-24 09:38:00,
2013-06-24 02:49:00,52.0,-99.9,29.82,WNW,299,0.0,1.0,-999,-99.99,,,-99.99,,2013-06-24 09:49:00,
2013-06-24 03:00:00,51.0,-99.9,29.82,WNW,291,3.0,4.0,-999,-99.99,,,-99.99,,2013-06-24 10:00:00,
2013-06-24 03:05:00,51.0,-99.9,29.83,WNW,298,2.0,3.0,-999,-99.99,,,-99.99,,2013-06-24 10:05:00,
2013-06-24 03:15:00,52.0,-99.9,29.82,NNW,331,-999.0,1.0,-999,-99.99,,,-99.99,,2013-06-24 10:15:00,
2013-06-24 03:25:00,52.0,-99.9,29.82,NNW,331,-999.0,1.0,-999,-99.99,,,-99.99,,2013-06-24 10:25:00,
2013-06-24 03:52:00,52.0,-99.9,29.82,WNW,289,-999.0,1.0,-999,-99.99,,,-99.99,,2013-06-24 10:52:00,
2013-06-24 03:59:00,52.0,-99.9,29.82,North,-999,-999.0,-999.0,-999,-99.99,,,-99.99,,2013-06-24 10:59:00,
2013-06-24 04:17:00,54.0,-99.9,29.82,SW,217,1.0,2.0,-999,-99.99,,,-99.99,,2013-06-24 11:17:00,
2013-06-24 04:36:00,54.0,-99.9,29.82,SSW,212,2.0,4.0,-999,-99.99,,,-99.99,,2013-06-24 11:36:00,
2013-06-24 04:51:00,54.0,-99.9,29.82,SW,229,1.0,4.0,-999,-99.99,,,-99.99,,2013-06-24 11:51:00,
2013-06-24 04:58:00,54.0,-99.9,29.82,SSW,209,2.0,6.0,-999,-99.99,,,-99.99,,2013-06-24 11:58:00,
2013-06-24 05:07:00,53.0,-99.9,29.82,SSW,211,1.0,3.0,-999,-99.99,,,-99.99,,2013-06-24 12:07:00,
2013-06-24 05:17:00,53.0,-99.9,29.82,SSW,211,1.0,3.0,-999,-99.99,,,-99.99,,2013-06-24 12:17:00,
2013-06-24 05:37:00,54.0,-99.9,29.83,WSW,258,2.0,3.0,-999,-99.99,,,-99.99,,2013-06-24 12:37:00,
2013-06-24 06:14:00,55.0,-99.9,29.84,WSW,258,2.0,6.0,-999,-99.99,,,-99.99,,2013-06-24 13:14:00,
2013-06-24 06:24:00,54.0,-99.9,29.83,West,276,1.0,2.0,-999,-99.99,,,-99.99,,2013-06-24 13:24:00,
2013-06-24 06:46:00,53.0,-99.9,29.84,WNW,292,0.0,1.0,-999,-99.99,,,-99.99,,2013-06-24 13:46:00,
2013-06-24 07:04:00,53.0,-99.9,29.84,North,-999,-999.0,-999.0,-999,-99.99,,,-99.99,,2013-06-24 14:04:00,
2013-06-24 07:25:00,53.0,-99.9,29.85,WNW,286,2.0,3.0,-999,-99.99,,,-99.99,,2013-06-24 14:25:00,
2013-06-24 07:38:00,52.0,-99.9,29.85,WNW,296,-999.0,3.0,-999,-99.99,,,-99.99,,2013-06-24 14:38:00,
2013-06-24 07:47:00,51.0,-99.9,29.85,NW,312,2.0,2.0,-999,-99.99,,,-99.99,,2013-06-24 14:47:00,
2013-06-24 08:00:00,51.0,-99.9,29.85,WNW,288,3.0,3.0,-999,-99.99,,,-99.99,,2013-06-24 15:00:00,
2013-06-24 08:06:00,51.0,-99.9,29.85,WNW,284,3.0,4.0,-999,-99.99,,,-99.99,,2013-06-24 15:06:00,
2013-06-24 08:15:00,51.0,-99.9,29.85,WNW,284,3.0,4.0,-999,-99.99,,,-99.99,,2013-06-24 15:15:00,
2013-06-24 08:27:00,51.0,-99.9,29.85,East,85,0.0,1.0,-999,-99.99,,,-99.99,,2013-06-24 15:27:00,
2013-06-24 08:37:00,52.0,-99.9,29.86,North,-999,-999.0,-999.0,-999,-99.99,,,-99.99,,2013-06-24 15:37:00,
2013-06-24 08:49:00,52.0,-99.9,29.86,ESE,117,1.0,1.0,-999,-99.99,,,-99.99,,2013-06-24 15:49:00,
2013-06-24 08:57:00,52.0,-99.9,29.87,SSE,147,2.0,3.0,-999,-99.99,,,-99.99,,2013-06-24 15:57:00,
2013-06-24 09:05:00,53.0,-99.9,29.87,ESE,120,3.0,4.0,-999,-99.99,,,-99.99,,2013-06-24 16:05:00,
2013-06-24 09:15:00,53.0,-99.9,29.87,ESE,120,3.0,4.0,-999,-99.99,,,-99.99,,2013-06-24 16:15:00,
2013-06-24 09:25:00,53.0,-99.9,29.86,SE,126,3.0,4.0,-999,-99.99,,,-99.99,,2013-06-24 16:25:00,
2013-06-24 10:07:00,52.0,-99.9,29.89,South,171,4.0,5.0,-999,-99.99,,,-99.99,,2013-06-24 17:07:00,
2013-06-24 10:57:00,53.0,-99.9,29.90,SSE,160,2.0,4.0,-999,-99.99,,,-99.99,,2013-06-24 17:57:00,
2013-06-24 11:03:00,53.0,-99.9,29.90,South,177,3.0,5.0,-999,-99.99,,,-99.99,,2013-06-24 18:03:00,
2013-06-24 11:50:00,54.0,-99.9,29.91,SSW,207,2.0,5.0,-999,-99.99,,,-99.99,,2013-06-24 18:50:00,
2013-06-24 11:56:00,54.0,-99.9,29.91,SSW,207,2.0,5.0,-999,-99.99,,,-99.99,,2013-06-24 18:56:00,
2013-06-24 12:07:00,53.0,-99.9,29.90,SE,135,3.0,5.0,-999,-99.99,,,-99.99,,2013-06-24 19:07:00,
2013-06-24 12:13:00,53.0,-99.9,29.90,East,97,3.0,4.0,-999,-99.99,,,-99.99,,2013-06-24 19:13:00,
2013-06-24 12:37:00,53.0,-99.9,29.91,East,93,4.0,5.0,-999,-99.99,,,-99.99,,2013-06-24 19:37:00,
2013-06-24 12:46:00,53.0,-99.9,29.91,East,95,5.0,6.0,-999,-99.99,,,-99.99,,2013-06-24 19:46:00,
2013-06-24 13:06:00,53.0,-99.9,29.91,ESE,112,4.0,6.0,-999,-99.99,,,-99.99,,2013-06-24 20:06:00,
2013-06-24 13:24:00,54.0,-99.9,29.91,ESE,118,5.0,7.0,-999,-99.99,,,-99.99,,2013-06-24 20:24:00,
2013-06-24 13:47:00,54.0,-99.9,29.91,ESE,123,6.0,9.0,-999,-99.99,,,-99.99,,2013-06-24 20:47:00,
2013-06-24 14:14:00,54.0,-99.9,29.91,East,93,5.0,8.0,-999,-99.99,,,-99.99,,2013-06-24 21:14:00,
2013-06-24 14:26:00,53.0,-99.9,29.91,East,91,5.0,7.0,-999,-99.99,,,-99.99,,2013-06-24 21:26:00,
2013-06-24 14:39:00,54.0,-99.9,29.91,ESE,112,4.0,6.0,-999,-99.99,,,-99.99,,2013-06-24 21:39:00,
2013-06-24 14:55:00,54.0,-99.9,29.90,ESE,117,10.0,13.0,-999,-99.99,,,-99.99,,2013-06-24 21:55:00,
2013-06-24 15:15:00,55.0,-99.9,29.90,ESE,121,6.0,14.0,-999,-99.99,,,-99.99,,2013-06-24 22:15:00,
2013-06-24 15:25:00,55.0,-99.9,29.90,SE,138,9.0,13.0,-999,-99.99,,,-99.99,,2013-06-24 22:25:00,
2013-06-24 15:51:00,53.0,-99.9,29.91,SSE,150,4.0,8.0,-999,-99.99,,,-99.99,,2013-06-24 22:51:00,
2013-06-24 15:56:00,53.0,-99.9,29.91,SSE,150,4.0,8.0,-999,-99.99,,,-99.99,,2013-06-24 22:56:00,
2013-06-24 16:06:00,53.0,-99.9,29.91,ESE,107,2.0,8.0,-999,-99.99,,,-99.99,,2013-06-24 23:06:00,
2013-06-24 16:14:00,53.0,-99.9,29.91,East,95,4.0,7.0,-999,-99.99,,,-99.99,,2013-06-24 23:14:00,
2013-06-24 16:27:00,53.0,-99.9,29.91,ESE,118,4.0,6.0,-999,-99.99,,,-99.99,,2013-06-24 23:27:00,
2013-06-24 16:37:00,53.0,-99.9,29.91,ESE,122,3.0,6.0,-999,-99.99,,,-99.99,,2013-06-24 23:37:00,
2013-06-24 17:06:00,53.0,-99.9,29.91,ESE,123,2.0,6.0,-999,-99.99,,,-99.99,,2013-06-25 00:06:00,
2013-06-24 17:14:00,54.0,-99.9,29.90,SE,127,4.0,7.0,-999,-99.99,,,-99.99,,2013-06-25 00:14:00,
2013-06-24 17:24:00,54.0,-99.9,29.90,ESE,105,7.0,9.0,-999,-99.99,,,-99.99,,2013-06-25 00:24:00,
2013-06-24 17:36:00,54.0,-99.9,29.90,ESE,114,7.0,11.0,-999,-99.99,,,-99.99,,2013-06-25 00:36:00,
2013-06-24 17:49:00,55.0,-99.9,29.90,SE,131,6.0,10.0,-999,-99.99,,,-99.99,,2013-06-25 00:49:00,
2013-06-24 17:56:00,54.0,-99.9,29.91,ESE,115,6.0,10.0,-999,-99.99,,,-99.99,,2013-06-25 00:56:00,
2013-06-24 18:04:00,55.0,-99.9,29.90,SE,125,4.0,7.0,-999,-99.99,,,-99.99,,2013-06-25 01:04:00,
2013-06-24 18:24:00,55.0,-99.9,29.89,ESE,122,7.0,9.0,-999,-99.99,,,-99.99,,2013-06-25 01:24:00,
2013-06-24 18:46:00,54.0,-99.9,29.89,SE,125,7.0,10.0,-999,-99.99,,,-99.99,,2013-06-25 01:46:00,
2013-06-24 18:58:00,54.0,-99.9,29.90,ESE,123,7.0,10.0,-999,-99.99,,,-99.99,,2013-06-25 01:58:00,
2013-06-24 19:06:00,54.0,-99.9,29.89,ESE,122,7.0,11.0,-999,-99.99,,,-99.99,,2013-06-25 02:06:00,
2013-06-24 19:38:00,55.0,-99.9,29.90,ESE,122,10.0,13.0,-999,-99.99,,,-99.99,,2013-06-25 02:38:00,
2013-06-24 19:49:00,55.0,-99.9,29.90,ESE,120,9.0,12.0,-999,-99.99,,,-99.99,,2013-06-25 02:49:00,
2013-06-24 19:58:00,55.0,-99.9,29.90,ESE,115,8.0,12.0,-999,-99.99,,,-99.99,,2013-06-25 02:58:00,
2013-06-24 20:08:00,55.0,-99.9,29.90,ESE,119,9.0,13.0,-999,-99.99,,,-99.99,,2013-06-25 03:08:00,
2013-06-24 20:35:00,55.0,-99.9,29.90,SE,126,11.0,14.0,-999,-99.99,,,-99.99,,2013-06-25 03:35:00,
2013-06-24 20:48:00,55.0,-99.9,29.90,ESE,115,9.0,13.0,-999,-99.99,,,-99.99,,2013-06-25 03:48:00,
2013-06-24 20:58:00,55.0,-99.9,29.90,ESE,122,10.0,14.0,-999,-99.99,,,-99.99,,2013-06-25 03:58:00,
2013-06-24 21:01:00,55.0,-99.9,29.90,ESE,123,9.0,14.0,-999,-99.99,,,-99.99,,2013-06-25 04:01:00,
2013-06-24 21:02:00,55.0,-99.9,29.89,SE,125,9.0,13.0,-999,-99.99,,,-99.99,,2013-06-25 04:02:00,
2013-06-24 21:11:00,55.0,-99.9,29.89,ESE,123,9.0,13.0,-999,-99.99,,,-99.99,,2013-06-25 04:11:00,
2013-06-24 21:22:00,55.0,-99.9,29.89,ESE,123,9.0,13.0,-999,-99.99,,,-99.99,,2013-06-25 04:22:00,
2013-06-24 21:34:00,55.0,-99.9,29.90,ESE,119,7.0,12.0,-999,-99.99,,,-99.99,,2013-06-25 04:34:00,
2013-06-24 21:43:00,55.0,-99.9,29.90,ESE,119,8.0,12.0,-999,-99.99,,,-99.99,,2013-06-25 04:43:00,
2013-06-24 21:52:00,55.0,-99.9,29.90,ESE,119,8.0,12.0,-999,-99.99,,,-99.99,,2013-06-25 04:52:00,
2013-06-24 22:01:00,55.0,-99.9,29.90,SE,128,10.0,15.0,-999,-99.99,,,-99.99,,2013-06-25 05:01:00,
2013-06-24 22:32:00,55.0,-99.9,29.91,ESE,120,11.0,16.0,-999,-99.99,,,-99.99,,2013-06-25 05:32:00,
2013-06-24 22:44:00,55.0,-99.9,29.91,SE,128,11.0,17.0,-999,-99.99,,,-99.99,,2013-06-25 05:44:00,
2013-06-24 23:01:00,55.0,-99.9,29.91,ESE,121,10.0,19.0,-999,-99.99,,,-99.99,,2013-06-25 06:01:00,
2013-06-24 23:34:00,55.0,-99.9,29.91,ESE,121,12.0,18.0,-999,-99.99,,,-99.99,,2013-06-25 06:34:00,
2013-06-24 23:43:00,55.0,-99.9,29.91,ESE,119,11.0,16.0,-999,-99.99,,,-99.99,,2013-06-25 06:43:00,
2013-06-24 23:52:00,55.0,-99.9,29.91,ESE,119,11.0,16.0,-999,-99.99,,,-99.99,,2013-06-25 06:52:00,